sensor_id;sensor_type;location;lat;lon;timestamp;P1;durP1;ratioP1;P2;durP2;ratioP2
7162;SDS011;3623;47.098;15.446;2023-04-03T00:02:09;2.30;;;2.20;;
7162;SDS011;3623;47.098;15.446;2023-04-03T00:04:36;2.28;;;2.17;;
7162;SDS011;3623;47.098;15.446;2023-04-03T00:07:03;2.28;;;2.17;;
7162;SDS011;3623;47.098;15.446;2023-04-03T00:09:30;2.60;;;2.50;;
7162;SDS011;3623;47.098;15.446;2023-04-03T00:11:57;2.17;;;1.98;;
7162;SDS011;3623;47.098;15.446;2023-04-03T00:14:25;2.97;;;2.47;;
7162;SDS011;3623;47.098;15.446;2023-04-03T00:16:52;2.40;;;2.30;;
7162;SDS011;3623;47.098;15.446;2023-04-03T00:19:19;3.50;;;3.30;;
7162;SDS011;3623;47.098;15.446;2023-04-03T00:21:46;2.33;;;2.15;;
7162;SDS011;3623;47.098;15.446;2023-04-03T00:24:13;2.38;;;2.20;;
7162;SDS011;3623;47.098;15.446;2023-04-03T00:26:41;3.28;;;3.00;;
7162;SDS011;3623;47.098;15.446;2023-04-03T00:29:08;1.80;;;1.80;;
7162;SDS011;3623;47.098;15.446;2023-04-03T00:31:36;2.65;;;2.45;;
7162;SDS011;3623;47.098;15.446;2023-04-03T00:34:03;2.50;;;2.40;;
7162;SDS011;3623;47.098;15.446;2023-04-03T00:36:30;2.40;;;2.30;;
7162;SDS011;3623;47.098;15.446;2023-04-03T00:38:57;2.35;;;2.15;;
7162;SDS011;3623;47.098;15.446;2023-04-03T00:41:24;2.65;;;2.45;;
7162;SDS011;3623;47.098;15.446;2023-04-03T00:43:51;2.20;;;2.10;;
7162;SDS011;3623;47.098;15.446;2023-04-03T00:46:18;2.03;;;1.92;;
7162;SDS011;3623;47.098;15.446;2023-04-03T00:48:47;3.00;;;2.80;;
7162;SDS011;3623;47.098;15.446;2023-04-03T00:51:16;2.60;;;2.50;;
7162;SDS011;3623;47.098;15.446;2023-04-03T00:53:49;2.72;;;2.63;;
7162;SDS011;3623;47.098;15.446;2023-04-03T00:56:19;2.22;;;2.13;;
7162;SDS011;3623;47.098;15.446;2023-04-03T00:58:50;2.70;;;2.50;;
7162;SDS011;3623;47.098;15.446;2023-04-03T01:01:21;2.53;;;2.33;;
7162;SDS011;3623;47.098;15.446;2023-04-03T01:03:51;2.60;;;2.40;;
7162;SDS011;3623;47.098;15.446;2023-04-03T01:06:20;3.78;;;3.20;;
7162;SDS011;3623;47.098;15.446;2023-04-03T01:08:49;2.50;;;2.35;;
7162;SDS011;3623;47.098;15.446;2023-04-03T01:11:17;2.45;;;2.35;;
7162;SDS011;3623;47.098;15.446;2023-04-03T01:13:46;2.72;;;2.63;;
7162;SDS011;3623;47.098;15.446;2023-04-03T01:16:14;3.38;;;3.13;;
7162;SDS011;3623;47.098;15.446;2023-04-03T01:18:41;2.40;;;2.30;;
7162;SDS011;3623;47.098;15.446;2023-04-03T01:24:20;2.90;;;2.78;;
7162;SDS011;3623;47.098;15.446;2023-04-03T01:26:53;2.40;;;2.30;;
7162;SDS011;3623;47.098;15.446;2023-04-03T01:29:21;2.70;;;2.50;;
7162;SDS011;3623;47.098;15.446;2023-04-03T01:31:50;2.60;;;2.47;;
7162;SDS011;3623;47.098;15.446;2023-04-03T01:34:18;2.53;;;2.42;;
7162;SDS011;3623;47.098;15.446;2023-04-03T01:36:45;2.47;;;2.38;;
7162;SDS011;3623;47.098;15.446;2023-04-03T01:39:12;2.47;;;2.38;;
7162;SDS011;3623;47.098;15.446;2023-04-03T01:41:40;2.47;;;2.35;;
7162;SDS011;3623;47.098;15.446;2023-04-03T01:44:07;2.80;;;2.67;;
7162;SDS011;3623;47.098;15.446;2023-04-03T01:46:34;2.75;;;2.40;;
7162;SDS011;3623;47.098;15.446;2023-04-03T01:49:04;2.00;;;1.90;;
7162;SDS011;3623;47.098;15.446;2023-04-03T01:51:31;2.35;;;2.25;;
7162;SDS011;3623;47.098;15.446;2023-04-03T01:53:58;3.10;;;2.90;;
7162;SDS011;3623;47.098;15.446;2023-04-03T01:56:25;2.65;;;2.45;;
7162;SDS011;3623;47.098;15.446;2023-04-03T01:58:53;2.20;;;2.10;;
7162;SDS011;3623;47.098;15.446;2023-04-03T02:01:20;2.30;;;2.10;;
7162;SDS011;3623;47.098;15.446;2023-04-03T02:03:47;2.80;;;2.60;;
7162;SDS011;3623;47.098;15.446;2023-04-03T02:06:15;2.90;;;2.70;;
7162;SDS011;3623;47.098;15.446;2023-04-03T02:08:42;2.45;;;2.22;;
7162;SDS011;3623;47.098;15.446;2023-04-03T02:11:09;2.20;;;2.10;;
7162;SDS011;3623;47.098;15.446;2023-04-03T02:13:36;2.75;;;2.65;;
7162;SDS011;3623;47.098;15.446;2023-04-03T02:16:07;2.17;;;1.98;;
7162;SDS011;3623;47.098;15.446;2023-04-03T02:18:35;2.38;;;2.22;;
7162;SDS011;3623;47.098;15.446;2023-04-03T02:21:02;2.22;;;2.13;;
7162;SDS011;3623;47.098;15.446;2023-04-03T02:23:31;2.53;;;2.35;;
7162;SDS011;3623;47.098;15.446;2023-04-03T02:26:02;2.15;;;2.05;;
7162;SDS011;3623;47.098;15.446;2023-04-03T02:28:33;2.35;;;2.13;;
7162;SDS011;3623;47.098;15.446;2023-04-03T02:31:00;3.10;;;2.80;;
7162;SDS011;3623;47.098;15.446;2023-04-03T02:33:28;3.72;;;2.65;;
7162;SDS011;3623;47.098;15.446;2023-04-03T02:35:55;2.67;;;2.47;;
7162;SDS011;3623;47.098;15.446;2023-04-03T02:38:23;2.35;;;2.20;;
7162;SDS011;3623;47.098;15.446;2023-04-03T02:40:52;2.65;;;2.50;;
7162;SDS011;3623;47.098;15.446;2023-04-03T02:43:19;3.00;;;2.75;;
7162;SDS011;3623;47.098;15.446;2023-04-03T02:45:46;3.17;;;2.97;;
7162;SDS011;3623;47.098;15.446;2023-04-03T02:48:13;3.50;;;3.30;;
7162;SDS011;3623;47.098;15.446;2023-04-03T02:50:41;2.97;;;2.78;;
7162;SDS011;3623;47.098;15.446;2023-04-03T02:53:08;2.83;;;2.65;;
7162;SDS011;3623;47.098;15.446;2023-04-03T02:55:35;2.85;;;2.75;;
7162;SDS011;3623;47.098;15.446;2023-04-03T02:58:05;2.50;;;2.30;;
7162;SDS011;3623;47.098;15.446;2023-04-03T03:00:32;2.15;;;2.05;;
7162;SDS011;3623;47.098;15.446;2023-04-03T03:03:00;2.20;;;2.10;;
7162;SDS011;3623;47.098;15.446;2023-04-03T03:05:27;1.98;;;1.90;;
7162;SDS011;3623;47.098;15.446;2023-04-03T03:07:54;2.28;;;2.17;;
7162;SDS011;3623;47.098;15.446;2023-04-03T03:10:21;2.42;;;2.33;;
7162;SDS011;3623;47.098;15.446;2023-04-03T03:12:49;2.45;;;1.70;;
7162;SDS011;3623;47.098;15.446;2023-04-03T03:15:18;1.83;;;1.73;;
7162;SDS011;3623;47.098;15.446;2023-04-03T03:17:45;2.35;;;2.25;;
7162;SDS011;3623;47.098;15.446;2023-04-03T03:20:12;2.10;;;2.00;;
7162;SDS011;3623;47.098;15.446;2023-04-03T03:22:40;1.90;;;1.80;;
7162;SDS011;3623;47.098;15.446;2023-04-03T03:25:08;1.80;;;1.70;;
7162;SDS011;3623;47.098;15.446;2023-04-03T03:27:35;2.20;;;2.10;;
7162;SDS011;3623;47.098;15.446;2023-04-03T03:30:03;2.33;;;2.22;;
7162;SDS011;3623;47.098;15.446;2023-04-03T03:32:32;1.90;;;1.80;;
7162;SDS011;3623;47.098;15.446;2023-04-03T03:34:59;2.40;;;2.30;;
7162;SDS011;3623;47.098;15.446;2023-04-03T03:37:26;2.25;;;2.13;;
7162;SDS011;3623;47.098;15.446;2023-04-03T03:39:53;2.60;;;2.40;;
7162;SDS011;3623;47.098;15.446;2023-04-03T03:42:20;2.42;;;2.22;;
7162;SDS011;3623;47.098;15.446;2023-04-03T03:44:47;1.98;;;1.88;;
7162;SDS011;3623;47.098;15.446;2023-04-03T03:47:14;2.50;;;2.30;;
7162;SDS011;3623;47.098;15.446;2023-04-03T03:49:43;2.25;;;2.15;;
7162;SDS011;3623;47.098;15.446;2023-04-03T03:52:10;2.00;;;1.90;;
7162;SDS011;3623;47.098;15.446;2023-04-03T03:54:37;1.85;;;1.75;;
7162;SDS011;3623;47.098;15.446;2023-04-03T03:57:04;1.90;;;1.80;;
7162;SDS011;3623;47.098;15.446;2023-04-03T03:59:31;2.00;;;1.90;;
7162;SDS011;3623;47.098;15.446;2023-04-03T04:01:58;1.88;;;1.77;;
7162;SDS011;3623;47.098;15.446;2023-04-03T04:04:26;1.92;;;1.83;;
7162;SDS011;3623;47.098;15.446;2023-04-03T04:06:54;2.70;;;2.50;;
7162;SDS011;3623;47.098;15.446;2023-04-03T04:09:21;2.85;;;2.70;;
7162;SDS011;3623;47.098;15.446;2023-04-03T04:11:48;2.92;;;2.08;;
7162;SDS011;3623;47.098;15.446;2023-04-03T04:14:15;1.92;;;1.83;;
7162;SDS011;3623;47.098;15.446;2023-04-03T04:16:42;2.10;;;2.00;;
7162;SDS011;3623;47.098;15.446;2023-04-03T04:19:10;1.90;;;1.80;;
7162;SDS011;3623;47.098;15.446;2023-04-03T04:21:37;2.30;;;2.20;;
7162;SDS011;3623;47.098;15.446;2023-04-03T04:24:06;2.70;;;2.50;;
7162;SDS011;3623;47.098;15.446;2023-04-03T04:26:33;2.65;;;2.45;;
7162;SDS011;3623;47.098;15.446;2023-04-03T04:29:00;2.10;;;1.70;;
7162;SDS011;3623;47.098;15.446;2023-04-03T04:31:27;2.08;;;1.98;;
7162;SDS011;3623;47.098;15.446;2023-04-03T04:33:54;1.95;;;1.85;;
7162;SDS011;3623;47.098;15.446;2023-04-03T04:36:21;1.77;;;1.70;;
7162;SDS011;3623;47.098;15.446;2023-04-03T04:38:49;2.20;;;2.10;;
7162;SDS011;3623;47.098;15.446;2023-04-03T04:41:19;2.03;;;1.92;;
7162;SDS011;3623;47.098;15.446;2023-04-03T04:43:47;2.28;;;2.17;;
7162;SDS011;3623;47.098;15.446;2023-04-03T04:46:14;2.20;;;2.08;;
7162;SDS011;3623;47.098;15.446;2023-04-03T04:48:42;2.50;;;1.95;;
7162;SDS011;3623;47.098;15.446;2023-04-03T04:51:09;2.20;;;2.00;;
7162;SDS011;3623;47.098;15.446;2023-04-03T04:53:36;2.05;;;1.95;;
7162;SDS011;3623;47.098;15.446;2023-04-03T04:56:04;1.85;;;1.75;;
7162;SDS011;3623;47.098;15.446;2023-04-03T04:58:32;2.83;;;2.25;;
7162;SDS011;3623;47.098;15.446;2023-04-03T05:01:00;7.55;;;4.45;;
7162;SDS011;3623;47.098;15.446;2023-04-03T05:03:27;3.60;;;3.30;;
7162;SDS011;3623;47.098;15.446;2023-04-03T05:05:54;2.58;;;2.22;;
7162;SDS011;3623;47.098;15.446;2023-04-03T05:08:22;2.45;;;2.20;;
7162;SDS011;3623;47.098;15.446;2023-04-03T05:10:49;2.63;;;2.47;;
7162;SDS011;3623;47.098;15.446;2023-04-03T05:13:16;2.08;;;1.98;;
7162;SDS011;3623;47.098;15.446;2023-04-03T05:15:44;1.60;;;1.60;;
7162;SDS011;3623;47.098;15.446;2023-04-03T05:18:12;2.05;;;1.92;;
7162;SDS011;3623;47.098;15.446;2023-04-03T05:20:39;2.50;;;2.30;;
7162;SDS011;3623;47.098;15.446;2023-04-03T05:23:08;2.03;;;1.60;;
7162;SDS011;3623;47.098;15.446;2023-04-03T05:25:37;1.83;;;1.73;;
7162;SDS011;3623;47.098;15.446;2023-04-03T05:28:04;1.95;;;1.85;;
7162;SDS011;3623;47.098;15.446;2023-04-03T05:30:31;2.22;;;1.77;;
7162;SDS011;3623;47.098;15.446;2023-04-03T05:33:00;3.38;;;2.50;;
7162;SDS011;3623;47.098;15.446;2023-04-03T05:35:27;2.15;;;2.05;;
7162;SDS011;3623;47.098;15.446;2023-04-03T05:37:54;2.63;;;2.33;;
7162;SDS011;3623;47.098;15.446;2023-04-03T05:40:21;1.83;;;1.73;;
7162;SDS011;3623;47.098;15.446;2023-04-03T05:42:48;1.90;;;1.80;;
7162;SDS011;3623;47.098;15.446;2023-04-03T05:45:15;1.52;;;1.50;;
7162;SDS011;3623;47.098;15.446;2023-04-03T05:47:43;1.92;;;1.83;;
7162;SDS011;3623;47.098;15.446;2023-04-03T05:50:11;1.77;;;1.67;;
7162;SDS011;3623;47.098;15.446;2023-04-03T05:52:40;1.98;;;1.85;;
7162;SDS011;3623;47.098;15.446;2023-04-03T05:55:10;2.03;;;1.90;;
7162;SDS011;3623;47.098;15.446;2023-04-03T05:57:37;2.30;;;2.20;;
7162;SDS011;3623;47.098;15.446;2023-04-03T06:00:05;2.22;;;2.03;;
7162;SDS011;3623;47.098;15.446;2023-04-03T06:02:34;1.95;;;1.85;;
7162;SDS011;3623;47.098;15.446;2023-04-03T06:05:02;2.22;;;2.13;;
7162;SDS011;3623;47.098;15.446;2023-04-03T06:07:30;1.88;;;1.77;;
7162;SDS011;3623;47.098;15.446;2023-04-03T06:09:57;1.88;;;1.80;;
7162;SDS011;3623;47.098;15.446;2023-04-03T06:12:25;1.98;;;1.88;;
7162;SDS011;3623;47.098;15.446;2023-04-03T06:14:54;2.33;;;2.13;;
7162;SDS011;3623;47.098;15.446;2023-04-03T06:17:21;1.80;;;1.70;;
7162;SDS011;3623;47.098;15.446;2023-04-03T06:19:48;2.08;;;1.98;;
7162;SDS011;3623;47.098;15.446;2023-04-03T06:22:16;1.80;;;1.50;;
7162;SDS011;3623;47.098;15.446;2023-04-03T06:24:44;2.00;;;1.90;;
7162;SDS011;3623;47.098;15.446;2023-04-03T06:27:11;1.90;;;1.80;;
7162;SDS011;3623;47.098;15.446;2023-04-03T06:29:38;1.52;;;1.50;;
7162;SDS011;3623;47.098;15.446;2023-04-03T06:32:05;2.03;;;1.92;;
7162;SDS011;3623;47.098;15.446;2023-04-03T06:34:32;2.40;;;2.30;;
7162;SDS011;3623;47.098;15.446;2023-04-03T06:37:00;1.80;;;1.70;;
7162;SDS011;3623;47.098;15.446;2023-04-03T06:39:27;1.85;;;1.75;;
7162;SDS011;3623;47.098;15.446;2023-04-03T06:41:56;1.90;;;1.80;;
7162;SDS011;3623;47.098;15.446;2023-04-03T06:44:23;1.88;;;1.77;;
7162;SDS011;3623;47.098;15.446;2023-04-03T06:46:50;2.83;;;2.10;;
7162;SDS011;3623;47.098;15.446;2023-04-03T06:49:19;2.00;;;1.90;;
7162;SDS011;3623;47.098;15.446;2023-04-03T06:51:46;1.85;;;1.75;;
7162;SDS011;3623;47.098;15.446;2023-04-03T06:54:14;1.50;;;1.50;;
7162;SDS011;3623;47.098;15.446;2023-04-03T06:56:41;1.95;;;1.85;;
7162;SDS011;3623;47.098;15.446;2023-04-03T06:59:10;5.18;;;1.80;;
7162;SDS011;3623;47.098;15.446;2023-04-03T07:01:38;1.55;;;1.55;;
7162;SDS011;3623;47.098;15.446;2023-04-03T07:04:05;2.15;;;1.85;;
7162;SDS011;3623;47.098;15.446;2023-04-03T07:06:33;2.30;;;2.20;;
7162;SDS011;3623;47.098;15.446;2023-04-03T07:09:00;1.58;;;1.52;;
7162;SDS011;3623;47.098;15.446;2023-04-03T07:11:27;2.15;;;2.05;;
7162;SDS011;3623;47.098;15.446;2023-04-03T07:13:55;2.38;;;2.17;;
7162;SDS011;3623;47.098;15.446;2023-04-03T07:16:23;1.95;;;1.73;;
7162;SDS011;3623;47.098;15.446;2023-04-03T07:18:50;2.20;;;2.10;;
7162;SDS011;3623;47.098;15.446;2023-04-03T07:21:17;1.77;;;1.67;;
7162;SDS011;3623;47.098;15.446;2023-04-03T07:23:44;1.70;;;1.60;;
7162;SDS011;3623;47.098;15.446;2023-04-03T07:26:11;2.03;;;1.92;;
7162;SDS011;3623;47.098;15.446;2023-04-03T07:28:38;2.70;;;2.50;;
7162;SDS011;3623;47.098;15.446;2023-04-03T07:31:07;2.40;;;2.20;;
7162;SDS011;3623;47.098;15.446;2023-04-03T07:33:38;3.80;;;1.83;;
7162;SDS011;3623;47.098;15.446;2023-04-03T07:36:06;2.13;;;1.92;;
7162;SDS011;3623;47.098;15.446;2023-04-03T07:38:34;4.30;;;1.77;;
7162;SDS011;3623;47.098;15.446;2023-04-03T07:41:02;2.05;;;1.95;;
7162;SDS011;3623;47.098;15.446;2023-04-03T07:43:30;1.92;;;1.83;;
7162;SDS011;3623;47.098;15.446;2023-04-03T07:45:59;1.67;;;1.58;;
7162;SDS011;3623;47.098;15.446;2023-04-03T07:48:26;1.83;;;1.73;;
7162;SDS011;3623;47.098;15.446;2023-04-03T07:50:58;1.80;;;1.70;;
7162;SDS011;3623;47.098;15.446;2023-04-03T07:53:26;1.70;;;1.60;;
7162;SDS011;3623;47.098;15.446;2023-04-03T07:55:53;1.77;;;1.67;;
7162;SDS011;3623;47.098;15.446;2023-04-03T07:58:22;2.40;;;2.20;;
7162;SDS011;3623;47.098;15.446;2023-04-03T08:00:49;1.52;;;1.50;;
7162;SDS011;3623;47.098;15.446;2023-04-03T08:03:16;1.67;;;1.58;;
7162;SDS011;3623;47.098;15.446;2023-04-03T08:05:44;1.30;;;1.30;;
7162;SDS011;3623;47.098;15.446;2023-04-03T08:08:15;1.52;;;1.52;;
7162;SDS011;3623;47.098;15.446;2023-04-03T08:10:43;1.65;;;1.55;;
7162;SDS011;3623;47.098;15.446;2023-04-03T08:13:15;1.50;;;1.50;;
7162;SDS011;3623;47.098;15.446;2023-04-03T08:15:42;1.73;;;1.73;;
7162;SDS011;3623;47.098;15.446;2023-04-03T08:18:09;4.22;;;2.10;;
7162;SDS011;3623;47.098;15.446;2023-04-03T08:20:37;1.58;;;1.48;;
7162;SDS011;3623;47.098;15.446;2023-04-03T08:23:05;1.50;;;1.48;;
7162;SDS011;3623;47.098;15.446;2023-04-03T08:25:37;1.73;;;1.63;;
7162;SDS011;3623;47.098;15.446;2023-04-03T08:28:05;1.90;;;1.80;;
7162;SDS011;3623;47.098;15.446;2023-04-03T08:30:32;2.13;;;1.73;;
7162;SDS011;3623;47.098;15.446;2023-04-03T08:33:00;1.88;;;1.77;;
7162;SDS011;3623;47.098;15.446;2023-04-03T08:35:27;1.90;;;1.80;;
7162;SDS011;3623;47.098;15.446;2023-04-03T08:37:54;1.65;;;1.55;;
7162;SDS011;3623;47.098;15.446;2023-04-03T08:40:21;1.85;;;1.75;;
7162;SDS011;3623;47.098;15.446;2023-04-03T08:42:56;1.55;;;1.45;;
7162;SDS011;3623;47.098;15.446;2023-04-03T08:45:37;1.27;;;1.20;;
7162;SDS011;3623;47.098;15.446;2023-04-03T08:48:12;1.17;;;1.17;;
7162;SDS011;3623;47.098;15.446;2023-04-03T08:50:45;1.95;;;1.85;;
7162;SDS011;3623;47.098;15.446;2023-04-03T08:53:16;1.10;;;1.10;;
7162;SDS011;3623;47.098;15.446;2023-04-03T08:55:46;1.42;;;1.33;;
7162;SDS011;3623;47.098;15.446;2023-04-03T08:58:16;2.65;;;1.50;;
7162;SDS011;3623;47.098;15.446;2023-04-03T09:00:46;1.15;;;1.10;;
7162;SDS011;3623;47.098;15.446;2023-04-03T09:03:16;1.27;;;1.20;;
7162;SDS011;3623;47.098;15.446;2023-04-03T09:05:47;1.38;;;1.25;;
7162;SDS011;3623;47.098;15.446;2023-04-03T09:08:23;1.73;;;1.30;;
7162;SDS011;3623;47.098;15.446;2023-04-03T09:10:57;1.27;;;1.27;;
7162;SDS011;3623;47.098;15.446;2023-04-03T09:13:34;1.90;;;1.80;;
7162;SDS011;3623;47.098;15.446;2023-04-03T09:16:10;1.63;;;1.52;;
7162;SDS011;3623;47.098;15.446;2023-04-03T09:18:50;1.80;;;1.42;;
7162;SDS011;3623;47.098;15.446;2023-04-03T09:21:22;1.50;;;1.50;;
7162;SDS011;3623;47.098;15.446;2023-04-03T09:23:55;1.42;;;1.40;;
7162;SDS011;3623;47.098;15.446;2023-04-03T09:26:28;1.65;;;1.55;;
7162;SDS011;3623;47.098;15.446;2023-04-03T09:29:02;1.45;;;1.35;;
7162;SDS011;3623;47.098;15.446;2023-04-03T09:31:35;2.45;;;1.23;;
7162;SDS011;3623;47.098;15.446;2023-04-03T09:34:05;2.42;;;2.33;;
7162;SDS011;3623;47.098;15.446;2023-04-03T09:36:43;1.60;;;1.50;;
7162;SDS011;3623;47.098;15.446;2023-04-03T09:39:12;1.30;;;1.30;;
7162;SDS011;3623;47.098;15.446;2023-04-03T09:41:41;1.42;;;1.30;;
7162;SDS011;3623;47.098;15.446;2023-04-03T09:44:21;1.65;;;1.55;;
7162;SDS011;3623;47.098;15.446;2023-04-03T09:46:49;1.60;;;1.50;;
7162;SDS011;3623;47.098;15.446;2023-04-03T09:49:17;2.00;;;1.90;;
7162;SDS011;3623;47.098;15.446;2023-04-03T09:51:44;1.73;;;1.63;;
7162;SDS011;3623;47.098;15.446;2023-04-03T09:54:31;1.70;;;1.60;;
7162;SDS011;3623;47.098;15.446;2023-04-03T09:57:02;1.20;;;1.20;;
7162;SDS011;3623;47.098;15.446;2023-04-03T09:59:34;1.77;;;1.67;;
7162;SDS011;3623;47.098;15.446;2023-04-03T10:02:21;1.80;;;1.70;;
7162;SDS011;3623;47.098;15.446;2023-04-03T10:05:04;1.70;;;1.60;;
7162;SDS011;3623;47.098;15.446;2023-04-03T10:07:51;1.70;;;1.60;;
7162;SDS011;3623;47.098;15.446;2023-04-03T10:10:32;1.70;;;1.60;;
7162;SDS011;3623;47.098;15.446;2023-04-03T10:13:05;1.30;;;1.30;;
7162;SDS011;3623;47.098;15.446;2023-04-03T10:15:36;1.70;;;1.60;;
7162;SDS011;3623;47.098;15.446;2023-04-03T10:18:10;1.20;;;1.20;;
7162;SDS011;3623;47.098;15.446;2023-04-03T10:20:49;2.33;;;2.00;;
7162;SDS011;3623;47.098;15.446;2023-04-03T10:23:18;1.60;;;1.50;;
7162;SDS011;3623;47.098;15.446;2023-04-03T10:25:55;1.17;;;1.17;;
7162;SDS011;3623;47.098;15.446;2023-04-03T10:28:31;1.30;;;1.20;;
7162;SDS011;3623;47.098;15.446;2023-04-03T10:31:08;2.45;;;1.85;;
7162;SDS011;3623;47.098;15.446;2023-04-03T10:33:44;1.77;;;1.67;;
7162;SDS011;3623;47.098;15.446;2023-04-03T10:36:19;2.17;;;2.00;;
7162;SDS011;3623;47.098;15.446;2023-04-03T10:38:57;1.67;;;1.58;;
7162;SDS011;3623;47.098;15.446;2023-04-03T10:41:33;1.95;;;1.85;;
7162;SDS011;3623;47.098;15.446;2023-04-03T10:44:13;3.55;;;2.08;;
7162;SDS011;3623;47.098;15.446;2023-04-03T10:46:48;1.27;;;1.25;;
7162;SDS011;3623;47.098;15.446;2023-04-03T10:49:25;1.20;;;1.20;;
7162;SDS011;3623;47.098;15.446;2023-04-03T10:52:00;1.75;;;1.65;;
7162;SDS011;3623;47.098;15.446;2023-04-03T10:54:33;1.55;;;1.45;;
7162;SDS011;3623;47.098;15.446;2023-04-03T10:57:05;2.15;;;1.67;;
7162;SDS011;3623;47.098;15.446;2023-04-03T10:59:35;1.40;;;1.33;;
7162;SDS011;3623;47.098;15.446;2023-04-03T11:02:07;1.67;;;1.58;;
7162;SDS011;3623;47.098;15.446;2023-04-03T11:04:44;1.98;;;1.60;;
7162;SDS011;3623;47.098;15.446;2023-04-03T11:07:17;1.30;;;1.30;;
7162;SDS011;3623;47.098;15.446;2023-04-03T11:09:48;1.48;;;1.48;;
7162;SDS011;3623;47.098;15.446;2023-04-03T11:12:21;1.13;;;1.13;;
7162;SDS011;3623;47.098;15.446;2023-04-03T11:14:53;1.20;;;1.20;;
7162;SDS011;3623;47.098;15.446;2023-04-03T11:17:26;1.35;;;1.25;;
7162;SDS011;3623;47.098;15.446;2023-04-03T11:19:59;1.13;;;1.13;;
7162;SDS011;3623;47.098;15.446;2023-04-03T11:22:32;1.55;;;1.55;;
7162;SDS011;3623;47.098;15.446;2023-04-03T11:25:04;1.73;;;1.63;;
7162;SDS011;3623;47.098;15.446;2023-04-03T11:27:41;1.10;;;1.10;;
7162;SDS011;3623;47.098;15.446;2023-04-03T11:30:14;1.23;;;1.23;;
7162;SDS011;3623;47.098;15.446;2023-04-03T11:32:54;1.45;;;1.35;;
7162;SDS011;3623;47.098;15.446;2023-04-03T11:35:29;1.50;;;1.50;;
7162;SDS011;3623;47.098;15.446;2023-04-03T11:37:57;1.40;;;1.30;;
7162;SDS011;3623;47.098;15.446;2023-04-03T11:40:28;1.60;;;1.50;;
7162;SDS011;3623;47.098;15.446;2023-04-03T11:43:02;1.65;;;1.55;;
7162;SDS011;3623;47.098;15.446;2023-04-03T11:45:37;1.40;;;1.33;;
7162;SDS011;3623;47.098;15.446;2023-04-03T12:06:50;4.60;;;1.40;;
7162;SDS011;3623;47.098;15.446;2023-04-03T12:09:35;1.90;;;1.80;;
7162;SDS011;3623;47.098;15.446;2023-04-03T12:12:24;1.30;;;1.20;;
7162;SDS011;3623;47.098;15.446;2023-04-03T12:14:59;1.43;;;1.33;;
7162;SDS011;3623;47.098;15.446;2023-04-03T12:17:44;1.50;;;1.50;;
7162;SDS011;3623;47.098;15.446;2023-04-03T12:23:27;1.30;;;1.30;;
7162;SDS011;3623;47.098;15.446;2023-04-03T12:26:04;1.70;;;1.30;;
7162;SDS011;3623;47.098;15.446;2023-04-03T12:28:44;1.20;;;1.10;;
7162;SDS011;3623;47.098;15.446;2023-04-03T12:31:13;1.47;;;1.37;;
7162;SDS011;3623;47.098;15.446;2023-04-03T12:33:46;1.60;;;1.50;;
7162;SDS011;3623;47.098;15.446;2023-04-03T12:36:29;1.50;;;1.50;;
7162;SDS011;3623;47.098;15.446;2023-04-03T12:39:16;3.00;;;1.70;;
7162;SDS011;3623;47.098;15.446;2023-04-03T12:41:54;1.75;;;1.65;;
7162;SDS011;3623;47.098;15.446;2023-04-03T12:44:36;2.50;;;1.23;;
7162;SDS011;3623;47.098;15.446;2023-04-03T12:47:22;1.43;;;1.33;;
7162;SDS011;3623;47.098;15.446;2023-04-03T12:49:52;1.53;;;1.43;;
7162;SDS011;3623;47.098;15.446;2023-04-03T12:52:24;1.80;;;1.70;;
7162;SDS011;3623;47.098;15.446;2023-04-03T12:54:59;1.73;;;1.63;;
7162;SDS011;3623;47.098;15.446;2023-04-03T12:57:29;1.40;;;1.30;;
7162;SDS011;3623;47.098;15.446;2023-04-03T12:59:57;1.83;;;1.20;;
7162;SDS011;3623;47.098;15.446;2023-04-03T13:02:26;2.00;;;1.90;;
7162;SDS011;3623;47.098;15.446;2023-04-03T13:04:55;1.60;;;1.50;;
7162;SDS011;3623;47.098;15.446;2023-04-03T13:07:25;1.93;;;1.83;;
7162;SDS011;3623;47.098;15.446;2023-04-03T13:12:48;1.43;;;1.33;;
7162;SDS011;3623;47.098;15.446;2023-04-03T13:15:17;1.53;;;1.43;;
7162;SDS011;3623;47.098;15.446;2023-04-03T13:17:46;1.77;;;1.67;;
7162;SDS011;3623;47.098;15.446;2023-04-03T13:20:17;1.17;;;1.10;;
7162;SDS011;3623;47.098;15.446;2023-04-03T13:22:48;2.37;;;1.70;;
7162;SDS011;3623;47.098;15.446;2023-04-03T13:25:23;1.47;;;1.37;;
7162;SDS011;3623;47.098;15.446;2023-04-03T13:27:53;1.80;;;1.40;;
7162;SDS011;3623;47.098;15.446;2023-04-03T13:30:25;1.50;;;1.40;;
7162;SDS011;3623;47.098;15.446;2023-04-03T13:32:54;2.50;;;1.70;;
7162;SDS011;3623;47.098;15.446;2023-04-03T13:35:31;1.47;;;1.37;;
7162;SDS011;3623;47.098;15.446;2023-04-03T13:38:03;2.05;;;1.85;;
7162;SDS011;3623;47.098;15.446;2023-04-03T13:40:35;1.77;;;1.67;;
7162;SDS011;3623;47.098;15.446;2023-04-03T13:43:17;2.35;;;2.25;;
7162;SDS011;3623;47.098;15.446;2023-04-03T13:45:53;1.90;;;1.70;;
7162;SDS011;3623;47.098;15.446;2023-04-03T13:48:34;1.35;;;1.30;;
7162;SDS011;3623;47.098;15.446;2023-04-03T13:51:07;1.42;;;1.40;;
7162;SDS011;3623;47.098;15.446;2023-04-03T13:53:45;2.53;;;2.30;;
7162;SDS011;3623;47.098;15.446;2023-04-03T13:56:21;1.38;;;1.27;;
7162;SDS011;3623;47.098;15.446;2023-04-03T13:58:56;2.75;;;2.55;;
7162;SDS011;3623;47.098;15.446;2023-04-03T14:01:32;1.95;;;1.85;;
7162;SDS011;3623;47.098;15.446;2023-04-03T14:04:10;2.13;;;1.92;;
7162;SDS011;3623;47.098;15.446;2023-04-03T14:06:39;2.20;;;2.00;;
7162;SDS011;3623;47.098;15.446;2023-04-03T14:09:07;4.00;;;2.05;;
7162;SDS011;3623;47.098;15.446;2023-04-03T14:11:35;2.88;;;2.17;;
7162;SDS011;3623;47.098;15.446;2023-04-03T14:14:05;2.30;;;2.20;;
7162;SDS011;3623;47.098;15.446;2023-04-03T14:16:38;2.28;;;2.08;;
7162;SDS011;3623;47.098;15.446;2023-04-03T14:19:10;1.55;;;1.45;;
7162;SDS011;3623;47.098;15.446;2023-04-03T14:21:45;2.25;;;1.70;;
7162;SDS011;3623;47.098;15.446;2023-04-03T14:24:13;2.65;;;2.00;;
7162;SDS011;3623;47.098;15.446;2023-04-03T14:26:43;3.67;;;1.90;;
7162;SDS011;3623;47.098;15.446;2023-04-03T14:29:10;2.03;;;1.33;;
7162;SDS011;3623;47.098;15.446;2023-04-03T14:31:38;12.83;;;2.83;;
7162;SDS011;3623;47.098;15.446;2023-04-03T14:34:06;1.30;;;1.30;;
7162;SDS011;3623;47.098;15.446;2023-04-03T14:36:33;1.90;;;1.80;;
7162;SDS011;3623;47.098;15.446;2023-04-03T14:39:03;1.70;;;1.60;;
7162;SDS011;3623;47.098;15.446;2023-04-03T14:41:31;2.23;;;2.03;;
7162;SDS011;3623;47.098;15.446;2023-04-03T14:44:00;1.83;;;1.73;;
7162;SDS011;3623;47.098;15.446;2023-04-03T14:46:28;1.77;;;1.60;;
7162;SDS011;3623;47.098;15.446;2023-04-03T14:48:57;2.30;;;1.57;;
7162;SDS011;3623;47.098;15.446;2023-04-03T14:51:25;2.53;;;1.60;;
7162;SDS011;3623;47.098;15.446;2023-04-03T14:53:52;2.03;;;1.93;;
7162;SDS011;3623;47.098;15.446;2023-04-03T14:56:21;2.20;;;2.10;;
7162;SDS011;3623;47.098;15.446;2023-04-03T14:58:52;1.97;;;1.87;;
7162;SDS011;3623;47.098;15.446;2023-04-03T15:01:23;1.83;;;1.73;;
7162;SDS011;3623;47.098;15.446;2023-04-03T15:03:51;2.77;;;2.13;;
7162;SDS011;3623;47.098;15.446;2023-04-03T15:06:18;1.90;;;1.80;;
7162;SDS011;3623;47.098;15.446;2023-04-03T15:08:46;2.00;;;1.90;;
7162;SDS011;3623;47.098;15.446;2023-04-03T15:11:14;2.00;;;1.90;;
7162;SDS011;3623;47.098;15.446;2023-04-03T15:13:41;1.70;;;1.60;;
7162;SDS011;3623;47.098;15.446;2023-04-03T15:16:11;1.73;;;1.57;;
7162;SDS011;3623;47.098;15.446;2023-04-03T15:18:43;2.10;;;1.93;;
7162;SDS011;3623;47.098;15.446;2023-04-03T15:21:11;1.53;;;1.53;;
7162;SDS011;3623;47.098;15.446;2023-04-03T15:23:38;1.73;;;1.63;;
7162;SDS011;3623;47.098;15.446;2023-04-03T15:26:05;2.50;;;2.20;;
7162;SDS011;3623;47.098;15.446;2023-04-03T15:28:33;2.00;;;1.90;;
7162;SDS011;3623;47.098;15.446;2023-04-03T15:31:02;1.87;;;1.77;;
7162;SDS011;3623;47.098;15.446;2023-04-03T15:33:30;1.73;;;1.63;;
7162;SDS011;3623;47.098;15.446;2023-04-03T15:35:59;2.17;;;1.87;;
7162;SDS011;3623;47.098;15.446;2023-04-03T15:38:26;1.83;;;1.63;;
7162;SDS011;3623;47.098;15.446;2023-04-03T15:40:54;2.07;;;1.97;;
7162;SDS011;3623;47.098;15.446;2023-04-03T15:43:21;2.07;;;1.73;;
7162;SDS011;3623;47.098;15.446;2023-04-03T15:45:49;1.63;;;1.53;;